Terminal Aerodrome Forecast
Issued by NWS Wilmington, OH

Current Version | Previous Version | Graphics & Text | Print | Product List | Glossary On
Versions: 1 2 3 4 5 6 7 8 9 10 11 12 13 14 15 16 17 18 19 20 21 22 23 24 25 26 27
000
FTUS41 KILN 190146 AAA
TAFCVG
TAF AMD
KCVG 190146Z 1902/2006 21008KT P6SM OVC040
      TEMPO 1902/1906 BKN010
     FM190600 24005KT 5SM BR OVC015
     FM191000 25004KT 2SM BR OVC008
     FM191500 26005KT P6SM BKN015
     FM192000 26006KT P6SM SCT025=

USA.gov is the U.S. government's official web portal to all federal, state and local government web resources and services.